sensor_id;sensor_type;location;lat;lon;timestamp;P1;durP1;ratioP1;P2;durP2;ratioP2
2638;SDS011;1329;51.384;7.122;2023-07-13T00:00:50;2.78;;;1.20;;
2638;SDS011;1329;51.384;7.122;2023-07-13T00:03:17;2.53;;;1.17;;
2638;SDS011;1329;51.384;7.122;2023-07-13T00:05:47;2.25;;;1.50;;
2638;SDS011;1329;51.384;7.122;2023-07-13T00:08:25;2.75;;;1.20;;
2638;SDS011;1329;51.384;7.122;2023-07-13T00:10:52;1.63;;;1.30;;
2638;SDS011;1329;51.384;7.122;2023-07-13T00:13:19;1.75;;;1.20;;
2638;SDS011;1329;51.384;7.122;2023-07-13T00:15:46;3.20;;;1.10;;
2638;SDS011;1329;51.384;7.122;2023-07-13T00:18:14;4.25;;;1.30;;
2638;SDS011;1329;51.384;7.122;2023-07-13T00:20:42;1.67;;;1.20;;
2638;SDS011;1329;51.384;7.122;2023-07-13T00:23:10;2.28;;;1.17;;
2638;SDS011;1329;51.384;7.122;2023-07-13T00:25:44;1.83;;;1.30;;
2638;SDS011;1329;51.384;7.122;2023-07-13T00:28:12;3.10;;;1.52;;
2638;SDS011;1329;51.384;7.122;2023-07-13T00:30:39;1.92;;;1.10;;
2638;SDS011;1329;51.384;7.122;2023-07-13T00:33:06;2.08;;;1.05;;
2638;SDS011;1329;51.384;7.122;2023-07-13T00:35:40;2.90;;;1.27;;
2638;SDS011;1329;51.384;7.122;2023-07-13T00:38:09;2.05;;;1.15;;
2638;SDS011;1329;51.384;7.122;2023-07-13T00:40:36;3.75;;;1.50;;
2638;SDS011;1329;51.384;7.122;2023-07-13T00:43:09;2.58;;;1.25;;
2638;SDS011;1329;51.384;7.122;2023-07-13T00:48:49;3.28;;;1.20;;
2638;SDS011;1329;51.384;7.122;2023-07-13T00:51:29;1.85;;;1.00;;
2638;SDS011;1329;51.384;7.122;2023-07-13T00:54:11;1.40;;;0.90;;
2638;SDS011;1329;51.384;7.122;2023-07-13T00:56:44;2.88;;;1.15;;
2638;SDS011;1329;51.384;7.122;2023-07-13T00:59:18;1.85;;;0.93;;
2638;SDS011;1329;51.384;7.122;2023-07-13T01:01:46;1.42;;;1.13;;
2638;SDS011;1329;51.384;7.122;2023-07-13T01:04:14;2.42;;;1.00;;
2638;SDS011;1329;51.384;7.122;2023-07-13T01:06:42;3.13;;;1.10;;
2638;SDS011;1329;51.384;7.122;2023-07-13T01:09:10;2.33;;;1.17;;
2638;SDS011;1329;51.384;7.122;2023-07-13T01:11:38;2.83;;;1.20;;
2638;SDS011;1329;51.384;7.122;2023-07-13T01:14:06;2.67;;;1.10;;
2638;SDS011;1329;51.384;7.122;2023-07-13T01:16:35;2.85;;;1.25;;
2638;SDS011;1329;51.384;7.122;2023-07-13T01:19:05;1.60;;;1.00;;
2638;SDS011;1329;51.384;7.122;2023-07-13T01:21:52;2.22;;;1.40;;
2638;SDS011;1329;51.384;7.122;2023-07-13T01:24:19;2.03;;;1.20;;
2638;SDS011;1329;51.384;7.122;2023-07-13T01:26:46;2.50;;;1.30;;
2638;SDS011;1329;51.384;7.122;2023-07-13T01:29:13;1.90;;;1.17;;
2638;SDS011;1329;51.384;7.122;2023-07-13T01:31:40;2.80;;;1.38;;
2638;SDS011;1329;51.384;7.122;2023-07-13T01:34:09;1.88;;;1.20;;
2638;SDS011;1329;51.384;7.122;2023-07-13T01:36:36;3.00;;;1.08;;
2638;SDS011;1329;51.384;7.122;2023-07-13T01:39:05;2.15;;;1.20;;
2638;SDS011;1329;51.384;7.122;2023-07-13T01:41:32;2.63;;;1.30;;
2638;SDS011;1329;51.384;7.122;2023-07-13T01:43:59;1.52;;;1.20;;
2638;SDS011;1329;51.384;7.122;2023-07-13T01:46:26;2.45;;;1.27;;
2638;SDS011;1329;51.384;7.122;2023-07-13T01:48:53;2.75;;;1.40;;
2638;SDS011;1329;51.384;7.122;2023-07-13T01:51:20;2.28;;;1.27;;
2638;SDS011;1329;51.384;7.122;2023-07-13T01:53:47;2.40;;;1.40;;
2638;SDS011;1329;51.384;7.122;2023-07-13T01:56:16;2.35;;;1.33;;
2638;SDS011;1329;51.384;7.122;2023-07-13T01:58:44;2.25;;;1.20;;
2638;SDS011;1329;51.384;7.122;2023-07-13T02:01:11;2.65;;;1.38;;
2638;SDS011;1329;51.384;7.122;2023-07-13T02:03:38;3.08;;;1.40;;
2638;SDS011;1329;51.384;7.122;2023-07-13T02:06:06;2.35;;;1.27;;
2638;SDS011;1329;51.384;7.122;2023-07-13T02:08:33;4.03;;;1.30;;
2638;SDS011;1329;51.384;7.122;2023-07-13T02:11:00;2.22;;;1.30;;
2638;SDS011;1329;51.384;7.122;2023-07-13T02:13:30;3.45;;;1.50;;
2638;SDS011;1329;51.384;7.122;2023-07-13T02:15:57;2.42;;;1.30;;
2638;SDS011;1329;51.384;7.122;2023-07-13T02:18:24;3.20;;;1.40;;
2638;SDS011;1329;51.384;7.122;2023-07-13T02:20:51;2.95;;;1.30;;
2638;SDS011;1329;51.384;7.122;2023-07-13T02:23:18;3.13;;;1.45;;
2638;SDS011;1329;51.384;7.122;2023-07-13T02:25:45;2.22;;;1.38;;
2638;SDS011;1329;51.384;7.122;2023-07-13T02:28:12;1.88;;;1.45;;
2638;SDS011;1329;51.384;7.122;2023-07-13T02:30:41;2.17;;;1.40;;
2638;SDS011;1329;51.384;7.122;2023-07-13T02:33:08;3.22;;;1.35;;
2638;SDS011;1329;51.384;7.122;2023-07-13T02:35:35;2.83;;;1.33;;
2638;SDS011;1329;51.384;7.122;2023-07-13T02:38:02;2.20;;;1.02;;
2638;SDS011;1329;51.384;7.122;2023-07-13T02:40:29;2.20;;;1.27;;
2638;SDS011;1329;51.384;7.122;2023-07-13T02:42:58;2.30;;;1.20;;
2638;SDS011;1329;51.384;7.122;2023-07-13T02:45:25;3.30;;;1.35;;
2638;SDS011;1329;51.384;7.122;2023-07-13T02:47:53;3.35;;;1.40;;
2638;SDS011;1329;51.384;7.122;2023-07-13T02:50:20;2.95;;;1.20;;
2638;SDS011;1329;51.384;7.122;2023-07-13T02:52:47;2.10;;;1.30;;
2638;SDS011;1329;51.384;7.122;2023-07-13T02:55:14;2.83;;;1.30;;
2638;SDS011;1329;51.384;7.122;2023-07-13T02:57:42;2.17;;;1.40;;
2638;SDS011;1329;51.384;7.122;2023-07-13T03:00:09;3.08;;;1.50;;
2638;SDS011;1329;51.384;7.122;2023-07-13T03:02:37;2.50;;;1.50;;
2638;SDS011;1329;51.384;7.122;2023-07-13T03:05:06;2.65;;;1.25;;
2638;SDS011;1329;51.384;7.122;2023-07-13T03:07:35;1.48;;;1.38;;
2638;SDS011;1329;51.384;7.122;2023-07-13T03:10:02;2.85;;;1.13;;
2638;SDS011;1329;51.384;7.122;2023-07-13T03:12:31;2.30;;;1.35;;
2638;SDS011;1329;51.384;7.122;2023-07-13T03:14:58;2.22;;;1.40;;
2638;SDS011;1329;51.384;7.122;2023-07-13T03:17:28;3.25;;;1.40;;
2638;SDS011;1329;51.384;7.122;2023-07-13T03:19:55;2.22;;;1.15;;
2638;SDS011;1329;51.384;7.122;2023-07-13T03:22:24;3.78;;;1.30;;
2638;SDS011;1329;51.384;7.122;2023-07-13T03:24:50;2.47;;;1.40;;
2638;SDS011;1329;51.384;7.122;2023-07-13T03:27:17;2.72;;;1.30;;
2638;SDS011;1329;51.384;7.122;2023-07-13T03:29:44;2.15;;;1.40;;
2638;SDS011;1329;51.384;7.122;2023-07-13T03:32:11;4.18;;;1.63;;
2638;SDS011;1329;51.384;7.122;2023-07-13T03:34:39;2.28;;;1.17;;
2638;SDS011;1329;51.384;7.122;2023-07-13T03:37:06;3.60;;;1.30;;
2638;SDS011;1329;51.384;7.122;2023-07-13T03:39:34;3.25;;;1.52;;
2638;SDS011;1329;51.384;7.122;2023-07-13T03:42:01;1.70;;;1.20;;
2638;SDS011;1329;51.384;7.122;2023-07-13T03:44:28;3.33;;;1.58;;
2638;SDS011;1329;51.384;7.122;2023-07-13T03:46:56;3.17;;;1.65;;
2638;SDS011;1329;51.384;7.122;2023-07-13T03:49:23;3.22;;;1.40;;
2638;SDS011;1329;51.384;7.122;2023-07-13T03:51:50;1.98;;;1.30;;
2638;SDS011;1329;51.384;7.122;2023-07-13T03:54:17;2.88;;;1.58;;
2638;SDS011;1329;51.384;7.122;2023-07-13T03:56:45;4.40;;;1.35;;
2638;SDS011;1329;51.384;7.122;2023-07-13T03:59:12;2.53;;;1.63;;
2638;SDS011;1329;51.384;7.122;2023-07-13T04:01:39;3.13;;;1.40;;
2638;SDS011;1329;51.384;7.122;2023-07-13T04:04:07;2.13;;;1.13;;
2638;SDS011;1329;51.384;7.122;2023-07-13T04:06:34;2.97;;;1.30;;
2638;SDS011;1329;51.384;7.122;2023-07-13T04:09:02;4.07;;;1.60;;
2638;SDS011;1329;51.384;7.122;2023-07-13T04:11:31;3.05;;;1.40;;
2638;SDS011;1329;51.384;7.122;2023-07-13T04:14:02;3.33;;;1.52;;
2638;SDS011;1329;51.384;7.122;2023-07-13T04:16:29;2.45;;;1.15;;
2638;SDS011;1329;51.384;7.122;2023-07-13T04:18:57;3.40;;;1.50;;
2638;SDS011;1329;51.384;7.122;2023-07-13T04:21:25;5.50;;;1.50;;
2638;SDS011;1329;51.384;7.122;2023-07-13T04:23:54;2.05;;;1.30;;
2638;SDS011;1329;51.384;7.122;2023-07-13T04:26:21;3.60;;;1.67;;
2638;SDS011;1329;51.384;7.122;2023-07-13T04:28:49;3.53;;;1.38;;
2638;SDS011;1329;51.384;7.122;2023-07-13T04:31:18;2.28;;;1.52;;
2638;SDS011;1329;51.384;7.122;2023-07-13T04:33:46;2.65;;;1.30;;
2638;SDS011;1329;51.384;7.122;2023-07-13T04:36:14;3.25;;;1.70;;
2638;SDS011;1329;51.384;7.122;2023-07-13T04:38:42;3.75;;;1.27;;
2638;SDS011;1329;51.384;7.122;2023-07-13T04:41:13;3.53;;;1.60;;
2638;SDS011;1329;51.384;7.122;2023-07-13T04:43:41;3.33;;;1.40;;
2638;SDS011;1329;51.384;7.122;2023-07-13T04:46:10;4.57;;;1.40;;
2638;SDS011;1329;51.384;7.122;2023-07-13T04:48:44;2.30;;;1.30;;
2638;SDS011;1329;51.384;7.122;2023-07-13T04:51:11;2.72;;;1.50;;
2638;SDS011;1329;51.384;7.122;2023-07-13T04:53:38;3.03;;;1.60;;
2638;SDS011;1329;51.384;7.122;2023-07-13T04:56:05;2.92;;;1.60;;
2638;SDS011;1329;51.384;7.122;2023-07-13T04:58:32;3.92;;;1.73;;
2638;SDS011;1329;51.384;7.122;2023-07-13T05:01:04;2.47;;;1.40;;
2638;SDS011;1329;51.384;7.122;2023-07-13T05:03:32;2.88;;;1.40;;
2638;SDS011;1329;51.384;7.122;2023-07-13T05:06:02;3.58;;;1.42;;
2638;SDS011;1329;51.384;7.122;2023-07-13T05:08:31;3.00;;;1.70;;
2638;SDS011;1329;51.384;7.122;2023-07-13T05:10:59;2.58;;;1.40;;
2638;SDS011;1329;51.384;7.122;2023-07-13T05:13:27;2.42;;;1.50;;
2638;SDS011;1329;51.384;7.122;2023-07-13T05:15:57;3.78;;;1.50;;
2638;SDS011;1329;51.384;7.122;2023-07-13T05:18:26;2.30;;;1.50;;
2638;SDS011;1329;51.384;7.122;2023-07-13T05:20:58;3.03;;;1.42;;
2638;SDS011;1329;51.384;7.122;2023-07-13T05:23:29;2.45;;;1.30;;
2638;SDS011;1329;51.384;7.122;2023-07-13T05:25:57;4.20;;;1.40;;
2638;SDS011;1329;51.384;7.122;2023-07-13T05:28:25;4.53;;;2.10;;
2638;SDS011;1329;51.384;7.122;2023-07-13T05:30:52;2.90;;;1.65;;
2638;SDS011;1329;51.384;7.122;2023-07-13T05:33:20;4.07;;;1.50;;
2638;SDS011;1329;51.384;7.122;2023-07-13T05:35:47;2.45;;;1.40;;
2638;SDS011;1329;51.384;7.122;2023-07-13T05:38:21;4.93;;;1.60;;
2638;SDS011;1329;51.384;7.122;2023-07-13T05:40:50;3.05;;;1.45;;
2638;SDS011;1329;51.384;7.122;2023-07-13T05:43:23;4.75;;;1.70;;
2638;SDS011;1329;51.384;7.122;2023-07-13T05:45:52;3.05;;;1.60;;
2638;SDS011;1329;51.384;7.122;2023-07-13T05:48:23;3.63;;;1.50;;
2638;SDS011;1329;51.384;7.122;2023-07-13T05:50:51;2.75;;;1.60;;
2638;SDS011;1329;51.384;7.122;2023-07-13T05:53:20;6.55;;;2.13;;
2638;SDS011;1329;51.384;7.122;2023-07-13T05:55:47;3.83;;;1.38;;
2638;SDS011;1329;51.384;7.122;2023-07-13T05:58:15;3.17;;;1.42;;
2638;SDS011;1329;51.384;7.122;2023-07-13T06:00:44;3.78;;;1.48;;
2638;SDS011;1329;51.384;7.122;2023-07-13T06:03:11;4.07;;;1.60;;
2638;SDS011;1329;51.384;7.122;2023-07-13T06:05:41;2.75;;;1.40;;
2638;SDS011;1329;51.384;7.122;2023-07-13T06:08:11;3.50;;;1.70;;
2638;SDS011;1329;51.384;7.122;2023-07-13T06:10:58;3.08;;;1.60;;
2638;SDS011;1329;51.384;7.122;2023-07-13T06:13:34;2.42;;;1.80;;
2638;SDS011;1329;51.384;7.122;2023-07-13T06:16:02;2.55;;;1.50;;
2638;SDS011;1329;51.384;7.122;2023-07-13T06:18:30;3.10;;;1.77;;
2638;SDS011;1329;51.384;7.122;2023-07-13T06:21:05;3.80;;;1.83;;
2638;SDS011;1329;51.384;7.122;2023-07-13T06:23:34;4.05;;;2.05;;
2638;SDS011;1329;51.384;7.122;2023-07-13T06:26:03;4.82;;;2.00;;
2638;SDS011;1329;51.384;7.122;2023-07-13T06:28:31;4.43;;;1.98;;
2638;SDS011;1329;51.384;7.122;2023-07-13T06:30:59;3.17;;;1.70;;
2638;SDS011;1329;51.384;7.122;2023-07-13T06:33:27;3.50;;;1.90;;
2638;SDS011;1329;51.384;7.122;2023-07-13T06:35:58;3.67;;;1.80;;
2638;SDS011;1329;51.384;7.122;2023-07-13T06:38:25;4.55;;;1.70;;
2638;SDS011;1329;51.384;7.122;2023-07-13T06:40:52;5.90;;;2.13;;
2638;SDS011;1329;51.384;7.122;2023-07-13T06:43:21;5.00;;;1.95;;
2638;SDS011;1329;51.384;7.122;2023-07-13T06:45:50;3.75;;;1.98;;
2638;SDS011;1329;51.384;7.122;2023-07-13T06:48:19;4.05;;;1.90;;
2638;SDS011;1329;51.384;7.122;2023-07-13T06:50:47;6.20;;;2.42;;
2638;SDS011;1329;51.384;7.122;2023-07-13T06:53:19;3.63;;;1.80;;
2638;SDS011;1329;51.384;7.122;2023-07-13T06:55:46;4.45;;;2.10;;
2638;SDS011;1329;51.384;7.122;2023-07-13T06:58:14;5.53;;;2.08;;
2638;SDS011;1329;51.384;7.122;2023-07-13T07:00:49;2.78;;;1.88;;
2638;SDS011;1329;51.384;7.122;2023-07-13T07:03:18;4.20;;;1.88;;
2638;SDS011;1329;51.384;7.122;2023-07-13T07:05:45;4.45;;;2.00;;
2638;SDS011;1329;51.384;7.122;2023-07-13T07:08:13;5.93;;;1.95;;
2638;SDS011;1329;51.384;7.122;2023-07-13T07:10:40;4.22;;;1.90;;
2638;SDS011;1329;51.384;7.122;2023-07-13T07:13:08;3.65;;;2.00;;
2638;SDS011;1329;51.384;7.122;2023-07-13T07:15:35;3.58;;;1.88;;
2638;SDS011;1329;51.384;7.122;2023-07-13T07:18:07;4.55;;;2.15;;
2638;SDS011;1329;51.384;7.122;2023-07-13T07:20:34;4.32;;;1.90;;
2638;SDS011;1329;51.384;7.122;2023-07-13T07:23:02;4.18;;;1.98;;
2638;SDS011;1329;51.384;7.122;2023-07-13T07:25:29;4.50;;;2.40;;
2638;SDS011;1329;51.384;7.122;2023-07-13T07:27:57;6.40;;;2.00;;
2638;SDS011;1329;51.384;7.122;2023-07-13T07:30:28;3.90;;;2.00;;
2638;SDS011;1329;51.384;7.122;2023-07-13T07:32:56;3.47;;;2.08;;
2638;SDS011;1329;51.384;7.122;2023-07-13T07:35:25;4.57;;;2.08;;
2638;SDS011;1329;51.384;7.122;2023-07-13T07:37:55;3.50;;;2.15;;
2638;SDS011;1329;51.384;7.122;2023-07-13T07:40:25;3.92;;;2.05;;
2638;SDS011;1329;51.384;7.122;2023-07-13T07:42:52;3.53;;;2.00;;
2638;SDS011;1329;51.384;7.122;2023-07-13T07:45:20;4.18;;;2.03;;
2638;SDS011;1329;51.384;7.122;2023-07-13T07:47:50;4.13;;;2.20;;
2638;SDS011;1329;51.384;7.122;2023-07-13T07:50:18;3.17;;;1.92;;
2638;SDS011;1329;51.384;7.122;2023-07-13T07:52:48;4.43;;;2.28;;
2638;SDS011;1329;51.384;7.122;2023-07-13T07:55:21;5.32;;;2.10;;
2638;SDS011;1329;51.384;7.122;2023-07-13T07:57:50;4.97;;;2.30;;
2638;SDS011;1329;51.384;7.122;2023-07-13T08:00:17;3.55;;;2.15;;
2638;SDS011;1329;51.384;7.122;2023-07-13T08:02:45;4.38;;;2.10;;
2638;SDS011;1329;51.384;7.122;2023-07-13T08:05:13;3.58;;;2.08;;
2638;SDS011;1329;51.384;7.122;2023-07-13T08:07:40;4.95;;;2.03;;
2638;SDS011;1329;51.384;7.122;2023-07-13T08:10:09;3.83;;;2.25;;
2638;SDS011;1329;51.384;7.122;2023-07-13T08:12:37;3.80;;;2.30;;
2638;SDS011;1329;51.384;7.122;2023-07-13T08:15:06;4.22;;;2.13;;
2638;SDS011;1329;51.384;7.122;2023-07-13T08:17:37;5.60;;;2.00;;
2638;SDS011;1329;51.384;7.122;2023-07-13T08:20:05;2.47;;;1.90;;
2638;SDS011;1329;51.384;7.122;2023-07-13T08:22:34;4.22;;;2.47;;
2638;SDS011;1329;51.384;7.122;2023-07-13T08:25:01;4.70;;;2.40;;
2638;SDS011;1329;51.384;7.122;2023-07-13T08:27:31;5.60;;;2.17;;
2638;SDS011;1329;51.384;7.122;2023-07-13T08:29:59;4.18;;;2.33;;
2638;SDS011;1329;51.384;7.122;2023-07-13T08:32:26;4.30;;;2.00;;
2638;SDS011;1329;51.384;7.122;2023-07-13T08:34:53;2.80;;;1.98;;
2638;SDS011;1329;51.384;7.122;2023-07-13T08:37:20;4.45;;;1.95;;
2638;SDS011;1329;51.384;7.122;2023-07-13T08:39:48;2.92;;;1.83;;
2638;SDS011;1329;51.384;7.122;2023-07-13T08:42:18;5.35;;;2.05;;
2638;SDS011;1329;51.384;7.122;2023-07-13T08:45:04;3.78;;;1.77;;
2638;SDS011;1329;51.384;7.122;2023-07-13T08:47:42;4.97;;;2.63;;
2638;SDS011;1329;51.384;7.122;2023-07-13T08:50:15;4.18;;;2.00;;
2638;SDS011;1329;51.384;7.122;2023-07-13T08:52:45;3.22;;;2.17;;
2638;SDS011;1329;51.384;7.122;2023-07-13T08:55:15;2.97;;;2.05;;
2638;SDS011;1329;51.384;7.122;2023-07-13T08:57:48;3.95;;;2.28;;
2638;SDS011;1329;51.384;7.122;2023-07-13T09:00:23;3.80;;;2.00;;
2638;SDS011;1329;51.384;7.122;2023-07-13T09:03:02;4.03;;;2.10;;
2638;SDS011;1329;51.384;7.122;2023-07-13T09:05:33;4.18;;;2.15;;
2638;SDS011;1329;51.384;7.122;2023-07-13T09:08:09;3.58;;;2.20;;
2638;SDS011;1329;51.384;7.122;2023-07-13T09:11:10;4.43;;;1.80;;
2638;SDS011;1329;51.384;7.122;2023-07-13T09:14:34;2.97;;;1.75;;
2638;SDS011;1329;51.384;7.122;2023-07-13T09:17:12;3.70;;;2.20;;
2638;SDS011;1329;51.384;7.122;2023-07-13T09:19:49;5.25;;;2.20;;
2638;SDS011;1329;51.384;7.122;2023-07-13T09:22:42;3.40;;;2.03;;
2638;SDS011;1329;51.384;7.122;2023-07-13T09:25:13;2.83;;;1.80;;
2638;SDS011;1329;51.384;7.122;2023-07-13T09:27:52;3.55;;;1.88;;
2638;SDS011;1329;51.384;7.122;2023-07-13T09:30:28;3.05;;;2.05;;
2638;SDS011;1329;51.384;7.122;2023-07-13T09:33:01;3.10;;;1.77;;
2638;SDS011;1329;51.384;7.122;2023-07-13T09:35:29;3.75;;;1.77;;
2638;SDS011;1329;51.384;7.122;2023-07-13T09:38:03;4.20;;;1.98;;
2638;SDS011;1329;51.384;7.122;2023-07-13T09:40:52;3.08;;;1.63;;
2638;SDS011;1329;51.384;7.122;2023-07-13T09:43:26;2.90;;;1.77;;
2638;SDS011;1329;51.384;7.122;2023-07-13T09:45:55;3.53;;;2.00;;
2638;SDS011;1329;51.384;7.122;2023-07-13T09:48:22;3.67;;;2.00;;
2638;SDS011;1329;51.384;7.122;2023-07-13T09:50:54;3.85;;;2.10;;
2638;SDS011;1329;51.384;7.122;2023-07-13T09:53:22;3.60;;;2.05;;
2638;SDS011;1329;51.384;7.122;2023-07-13T09:55:50;4.65;;;1.75;;
2638;SDS011;1329;51.384;7.122;2023-07-13T09:58:17;5.28;;;2.30;;
2638;SDS011;1329;51.384;7.122;2023-07-13T10:00:57;3.90;;;1.70;;
2638;SDS011;1329;51.384;7.122;2023-07-13T10:03:27;3.83;;;2.00;;
2638;SDS011;1329;51.384;7.122;2023-07-13T10:06:09;4.28;;;2.10;;
2638;SDS011;1329;51.384;7.122;2023-07-13T10:08:39;3.78;;;1.92;;
2638;SDS011;1329;51.384;7.122;2023-07-13T10:11:09;3.55;;;2.15;;
2638;SDS011;1329;51.384;7.122;2023-07-13T10:13:41;3.75;;;1.98;;
2638;SDS011;1329;51.384;7.122;2023-07-13T10:16:12;2.97;;;1.98;;
2638;SDS011;1329;51.384;7.122;2023-07-13T10:18:42;3.80;;;1.92;;
2638;SDS011;1329;51.384;7.122;2023-07-13T10:21:15;4.90;;;1.88;;
2638;SDS011;1329;51.384;7.122;2023-07-13T10:23:45;3.15;;;1.90;;
2638;SDS011;1329;51.384;7.122;2023-07-13T10:26:19;4.28;;;1.80;;
2638;SDS011;1329;51.384;7.122;2023-07-13T10:28:52;4.50;;;2.08;;
2638;SDS011;1329;51.384;7.122;2023-07-13T10:31:25;3.20;;;1.80;;
2638;SDS011;1329;51.384;7.122;2023-07-13T10:33:55;3.30;;;1.80;;
2638;SDS011;1329;51.384;7.122;2023-07-13T10:36:30;2.63;;;1.90;;
2638;SDS011;1329;51.384;7.122;2023-07-13T10:39:03;4.65;;;1.60;;
2638;SDS011;1329;51.384;7.122;2023-07-13T10:41:33;3.00;;;1.90;;
2638;SDS011;1329;51.384;7.122;2023-07-13T10:44:09;3.38;;;1.75;;
2638;SDS011;1329;51.384;7.122;2023-07-13T10:46:52;3.88;;;1.83;;
2638;SDS011;1329;51.384;7.122;2023-07-13T10:49:26;3.15;;;1.88;;
2638;SDS011;1329;51.384;7.122;2023-07-13T10:51:58;3.55;;;2.03;;
2638;SDS011;1329;51.384;7.122;2023-07-13T10:54:30;2.65;;;1.40;;
2638;SDS011;1329;51.384;7.122;2023-07-13T10:57:14;1.75;;;1.50;;
2638;SDS011;1329;51.384;7.122;2023-07-13T10:59:49;3.53;;;1.75;;
2638;SDS011;1329;51.384;7.122;2023-07-13T11:02:43;3.42;;;1.80;;
2638;SDS011;1329;51.384;7.122;2023-07-13T11:05:26;3.63;;;1.83;;
2638;SDS011;1329;51.384;7.122;2023-07-13T11:07:56;3.38;;;1.67;;
2638;SDS011;1329;51.384;7.122;2023-07-13T11:10:50;3.33;;;1.83;;
2638;SDS011;1329;51.384;7.122;2023-07-13T11:13:36;2.88;;;1.90;;
2638;SDS011;1329;51.384;7.122;2023-07-13T11:16:42;2.97;;;1.65;;
2638;SDS011;1329;51.384;7.122;2023-07-13T11:22:12;3.13;;;1.80;;
2638;SDS011;1329;51.384;7.122;2023-07-13T11:24:50;2.45;;;1.50;;
2638;SDS011;1329;51.384;7.122;2023-07-13T11:27:27;3.67;;;1.70;;
2638;SDS011;1329;51.384;7.122;2023-07-13T11:30:32;2.40;;;1.45;;
2638;SDS011;1329;51.384;7.122;2023-07-13T11:33:10;3.70;;;1.50;;
2638;SDS011;1329;51.384;7.122;2023-07-13T11:35:45;2.83;;;1.65;;
2638;SDS011;1329;51.384;7.122;2023-07-13T11:38:31;3.30;;;1.60;;
2638;SDS011;1329;51.384;7.122;2023-07-13T11:41:03;3.20;;;1.50;;
2638;SDS011;1329;51.384;7.122;2023-07-13T11:43:39;2.90;;;1.42;;
2638;SDS011;1329;51.384;7.122;2023-07-13T11:46:14;2.05;;;1.33;;
2638;SDS011;1329;51.384;7.122;2023-07-13T11:48:44;2.03;;;1.42;;
2638;SDS011;1329;51.384;7.122;2023-07-13T11:51:16;2.72;;;1.70;;
2638;SDS011;1329;51.384;7.122;2023-07-13T11:53:52;2.42;;;1.60;;
2638;SDS011;1329;51.384;7.122;2023-07-13T11:56:21;2.50;;;1.60;;
2638;SDS011;1329;51.384;7.122;2023-07-13T11:58:50;2.47;;;1.65;;
2638;SDS011;1329;51.384;7.122;2023-07-13T12:01:23;2.65;;;1.52;;
2638;SDS011;1329;51.384;7.122;2023-07-13T12:03:57;2.50;;;1.67;;
2638;SDS011;1329;51.384;7.122;2023-07-13T12:06:29;2.10;;;1.35;;
2638;SDS011;1329;51.384;7.122;2023-07-13T12:09:09;3.38;;;1.63;;
2638;SDS011;1329;51.384;7.122;2023-07-13T12:11:41;1.73;;;1.38;;
2638;SDS011;1329;51.384;7.122;2023-07-13T12:14:13;2.92;;;1.33;;
2638;SDS011;1329;51.384;7.122;2023-07-13T12:16:50;1.70;;;1.38;;
2638;SDS011;1329;51.384;7.122;2023-07-13T12:19:18;2.38;;;1.30;;
2638;SDS011;1329;51.384;7.122;2023-07-13T12:21:50;2.33;;;1.60;;
2638;SDS011;1329;51.384;7.122;2023-07-13T12:24:21;2.88;;;1.33;;
2638;SDS011;1329;51.384;7.122;2023-07-13T12:26:52;4.00;;;1.63;;
2638;SDS011;1329;51.384;7.122;2023-07-13T12:29:21;3.08;;;1.52;;
2638;SDS011;1329;51.384;7.122;2023-07-13T12:31:49;3.40;;;1.67;;
2638;SDS011;1329;51.384;7.122;2023-07-13T12:34:18;2.88;;;1.80;;
2638;SDS011;1329;51.384;7.122;2023-07-13T12:36:47;2.33;;;1.45;;
2638;SDS011;1329;51.384;7.122;2023-07-13T12:39:19;1.80;;;1.52;;
2638;SDS011;1329;51.384;7.122;2023-07-13T12:41:53;3.38;;;1.38;;
2638;SDS011;1329;51.384;7.122;2023-07-13T12:44:40;3.38;;;1.45;;
2638;SDS011;1329;51.384;7.122;2023-07-13T12:47:10;2.85;;;1.58;;
2638;SDS011;1329;51.384;7.122;2023-07-13T12:49:41;4.15;;;1.80;;
2638;SDS011;1329;51.384;7.122;2023-07-13T12:52:16;1.95;;;1.33;;
2638;SDS011;1329;51.384;7.122;2023-07-13T12:54:54;2.40;;;1.30;;
2638;SDS011;1329;51.384;7.122;2023-07-13T12:57:25;2.88;;;1.30;;
2638;SDS011;1329;51.384;7.122;2023-07-13T12:59:52;2.08;;;1.52;;
2638;SDS011;1329;51.384;7.122;2023-07-13T13:02:22;1.30;;;1.20;;
2638;SDS011;1329;51.384;7.122;2023-07-13T13:04:57;3.00;;;1.40;;
2638;SDS011;1329;51.384;7.122;2023-07-13T13:07:26;2.42;;;1.20;;
2638;SDS011;1329;51.384;7.122;2023-07-13T13:09:54;2.42;;;1.38;;
2638;SDS011;1329;51.384;7.122;2023-07-13T13:12:22;2.97;;;1.60;;
2638;SDS011;1329;51.384;7.122;2023-07-13T13:14:51;3.20;;;1.60;;
2638;SDS011;1329;51.384;7.122;2023-07-13T13:17:19;2.40;;;1.42;;
2638;SDS011;1329;51.384;7.122;2023-07-13T13:19:49;1.50;;;1.20;;
2638;SDS011;1329;51.384;7.122;2023-07-13T13:22:18;2.42;;;1.30;;
2638;SDS011;1329;51.384;7.122;2023-07-13T13:24:47;2.70;;;1.40;;
2638;SDS011;1329;51.384;7.122;2023-07-13T13:27:15;3.78;;;1.48;;
2638;SDS011;1329;51.384;7.122;2023-07-13T13:29:43;2.40;;;1.50;;
2638;SDS011;1329;51.384;7.122;2023-07-13T13:32:12;2.97;;;1.77;;
2638;SDS011;1329;51.384;7.122;2023-07-13T13:34:41;4.32;;;1.42;;
2638;SDS011;1329;51.384;7.122;2023-07-13T13:37:18;2.53;;;1.27;;
2638;SDS011;1329;51.384;7.122;2023-07-13T13:39:49;4.00;;;1.40;;
2638;SDS011;1329;51.384;7.122;2023-07-13T13:42:18;3.10;;;1.40;;
2638;SDS011;1329;51.384;7.122;2023-07-13T13:44:47;2.55;;;1.20;;
2638;SDS011;1329;51.384;7.122;2023-07-13T13:47:28;2.33;;;1.30;;
2638;SDS011;1329;51.384;7.122;2023-07-13T13:50:00;2.13;;;1.27;;
2638;SDS011;1329;51.384;7.122;2023-07-13T13:52:27;3.03;;;1.40;;
2638;SDS011;1329;51.384;7.122;2023-07-13T13:54:56;2.42;;;1.27;;
2638;SDS011;1329;51.384;7.122;2023-07-13T13:57:24;2.10;;;1.42;;
2638;SDS011;1329;51.384;7.122;2023-07-13T13:59:51;2.00;;;1.40;;
2638;SDS011;1329;51.384;7.122;2023-07-13T14:02:21;1.98;;;1.20;;
2638;SDS011;1329;51.384;7.122;2023-07-13T14:04:52;4.15;;;1.33;;
2638;SDS011;1329;51.384;7.122;2023-07-13T14:07:23;2.28;;;1.42;;
2638;SDS011;1329;51.384;7.122;2023-07-13T14:09:50;2.42;;;1.50;;
2638;SDS011;1329;51.384;7.122;2023-07-13T14:12:19;1.95;;;1.30;;
2638;SDS011;1329;51.384;7.122;2023-07-13T14:14:47;1.95;;;1.40;;
2638;SDS011;1329;51.384;7.122;2023-07-13T14:17:19;2.72;;;1.23;;
2638;SDS011;1329;51.384;7.122;2023-07-13T14:19:49;2.08;;;1.42;;
2638;SDS011;1329;51.384;7.122;2023-07-13T14:22:21;3.03;;;1.40;;
2638;SDS011;1329;51.384;7.122;2023-07-13T14:24:49;1.38;;;1.27;;
2638;SDS011;1329;51.384;7.122;2023-07-13T14:27:19;1.85;;;1.20;;
2638;SDS011;1329;51.384;7.122;2023-07-13T14:29:52;1.95;;;1.35;;
2638;SDS011;1329;51.384;7.122;2023-07-13T14:32:22;2.38;;;1.40;;
2638;SDS011;1329;51.384;7.122;2023-07-13T14:34:55;3.45;;;1.50;;
2638;SDS011;1329;51.384;7.122;2023-07-13T14:37:22;2.80;;;1.50;;
2638;SDS011;1329;51.384;7.122;2023-07-13T14:39:50;3.25;;;1.90;;
2638;SDS011;1329;51.384;7.122;2023-07-13T14:42:20;2.33;;;1.77;;
2638;SDS011;1329;51.384;7.122;2023-07-13T14:44:48;1.70;;;1.60;;
2638;SDS011;1329;51.384;7.122;2023-07-13T14:47:15;2.78;;;1.85;;
2638;SDS011;1329;51.384;7.122;2023-07-13T14:49:42;2.00;;;1.75;;
2638;SDS011;1329;51.384;7.122;2023-07-13T14:52:14;2.72;;;1.90;;
2638;SDS011;1329;51.384;7.122;2023-07-13T14:54:44;3.22;;;2.10;;
2638;SDS011;1329;51.384;7.122;2023-07-13T14:57:13;2.50;;;1.98;;
2638;SDS011;1329;51.384;7.122;2023-07-13T14:59:42;4.93;;;2.05;;
2638;SDS011;1329;51.384;7.122;2023-07-13T15:02:17;3.40;;;2.00;;
2638;SDS011;1329;51.384;7.122;2023-07-13T15:04:51;3.70;;;2.28;;
2638;SDS011;1329;51.384;7.122;2023-07-13T15:07:18;3.58;;;2.10;;
2638;SDS011;1329;51.384;7.122;2023-07-13T15:09:45;2.95;;;2.20;;
2638;SDS011;1329;51.384;7.122;2023-07-13T15:12:13;4.43;;;2.10;;
2638;SDS011;1329;51.384;7.122;2023-07-13T15:14:40;2.47;;;1.80;;
2638;SDS011;1329;51.384;7.122;2023-07-13T15:17:16;3.50;;;2.10;;
2638;SDS011;1329;51.384;7.122;2023-07-13T15:19:52;3.28;;;2.03;;
2638;SDS011;1329;51.384;7.122;2023-07-13T15:22:21;3.35;;;2.05;;
2638;SDS011;1329;51.384;7.122;2023-07-13T15:24:48;2.10;;;1.90;;
2638;SDS011;1329;51.384;7.122;2023-07-13T15:27:15;2.67;;;2.05;;
2638;SDS011;1329;51.384;7.122;2023-07-13T15:29:43;4.13;;;2.00;;
2638;SDS011;1329;51.384;7.122;2023-07-13T15:32:11;2.47;;;2.00;;
2638;SDS011;1329;51.384;7.122;2023-07-13T15:34:40;2.78;;;1.85;;
2638;SDS011;1329;51.384;7.122;2023-07-13T15:37:08;3.65;;;1.98;;
2638;SDS011;1329;51.384;7.122;2023-07-13T15:39:43;4.32;;;2.00;;
2638;SDS011;1329;51.384;7.122;2023-07-13T15:42:13;2.95;;;1.80;;